sensor_id;sensor_type;location;lat;lon;timestamp;P1;durP1;ratioP1;P2;durP2;ratioP2
20065;SDS011;10193;48.884;9.182;2022-10-28T00:00:09;4.43;;;2.80;;
20065;SDS011;10193;48.884;9.182;2022-10-28T00:02:36;5.38;;;3.10;;
20065;SDS011;10193;48.884;9.182;2022-10-28T00:05:04;4.60;;;3.10;;
20065;SDS011;10193;48.884;9.182;2022-10-28T00:07:31;4.20;;;3.10;;
20065;SDS011;10193;48.884;9.182;2022-10-28T00:09:58;5.35;;;2.78;;
20065;SDS011;10193;48.884;9.182;2022-10-28T00:12:26;5.53;;;3.00;;
20065;SDS011;10193;48.884;9.182;2022-10-28T00:14:53;5.55;;;3.25;;
20065;SDS011;10193;48.884;9.182;2022-10-28T00:17:19;4.93;;;3.05;;
20065;SDS011;10193;48.884;9.182;2022-10-28T00:19:46;4.22;;;3.10;;
20065;SDS011;10193;48.884;9.182;2022-10-28T00:22:13;4.07;;;2.80;;
20065;SDS011;10193;48.884;9.182;2022-10-28T00:24:39;5.78;;;3.35;;
20065;SDS011;10193;48.884;9.182;2022-10-28T00:27:06;4.22;;;3.08;;
20065;SDS011;10193;48.884;9.182;2022-10-28T00:29:34;4.22;;;2.85;;
20065;SDS011;10193;48.884;9.182;2022-10-28T00:32:00;4.40;;;3.20;;
20065;SDS011;10193;48.884;9.182;2022-10-28T00:34:27;3.95;;;3.30;;
20065;SDS011;10193;48.884;9.182;2022-10-28T00:36:54;4.35;;;3.00;;
20065;SDS011;10193;48.884;9.182;2022-10-28T00:39:22;5.00;;;3.08;;
20065;SDS011;10193;48.884;9.182;2022-10-28T00:41:50;4.53;;;2.85;;
20065;SDS011;10193;48.884;9.182;2022-10-28T00:44:42;5.55;;;3.13;;
20065;SDS011;10193;48.884;9.182;2022-10-28T00:47:17;4.78;;;3.13;;
20065;SDS011;10193;48.884;9.182;2022-10-28T00:50:10;3.47;;;3.17;;
20065;SDS011;10193;48.884;9.182;2022-10-28T00:52:45;4.68;;;3.00;;
20065;SDS011;10193;48.884;9.182;2022-10-28T00:55:15;3.65;;;3.15;;
20065;SDS011;10193;48.884;9.182;2022-10-28T00:57:43;3.95;;;2.90;;
20065;SDS011;10193;48.884;9.182;2022-10-28T01:00:13;5.68;;;3.38;;
20065;SDS011;10193;48.884;9.182;2022-10-28T01:02:42;4.40;;;2.85;;
20065;SDS011;10193;48.884;9.182;2022-10-28T01:05:11;3.90;;;3.00;;
20065;SDS011;10193;48.884;9.182;2022-10-28T01:07:40;6.55;;;2.80;;
20065;SDS011;10193;48.884;9.182;2022-10-28T01:10:07;4.95;;;2.70;;
20065;SDS011;10193;48.884;9.182;2022-10-28T01:12:38;4.60;;;3.00;;
20065;SDS011;10193;48.884;9.182;2022-10-28T01:15:20;5.10;;;3.15;;
20065;SDS011;10193;48.884;9.182;2022-10-28T01:17:58;6.65;;;3.13;;
20065;SDS011;10193;48.884;9.182;2022-10-28T01:20:39;3.42;;;2.65;;
20065;SDS011;10193;48.884;9.182;2022-10-28T01:23:23;3.15;;;2.63;;
20065;SDS011;10193;48.884;9.182;2022-10-28T01:25:57;4.40;;;3.05;;
20065;SDS011;10193;48.884;9.182;2022-10-28T01:28:39;5.00;;;3.00;;
20065;SDS011;10193;48.884;9.182;2022-10-28T01:31:25;3.95;;;2.70;;
20065;SDS011;10193;48.884;9.182;2022-10-28T01:34:02;4.72;;;2.88;;
20065;SDS011;10193;48.884;9.182;2022-10-28T01:36:35;4.47;;;3.05;;
20065;SDS011;10193;48.884;9.182;2022-10-28T01:39:10;4.25;;;2.97;;
20065;SDS011;10193;48.884;9.182;2022-10-28T01:41:47;3.97;;;2.88;;
20065;SDS011;10193;48.884;9.182;2022-10-28T01:44:19;3.03;;;2.72;;
20065;SDS011;10193;48.884;9.182;2022-10-28T01:46:54;5.90;;;3.00;;
20065;SDS011;10193;48.884;9.182;2022-10-28T01:49:27;5.47;;;2.88;;
20065;SDS011;10193;48.884;9.182;2022-10-28T01:51:59;4.50;;;3.17;;
20065;SDS011;10193;48.884;9.182;2022-10-28T01:54:30;3.65;;;2.83;;
20065;SDS011;10193;48.884;9.182;2022-10-28T01:56:58;4.65;;;3.10;;
20065;SDS011;10193;48.884;9.182;2022-10-28T01:59:28;4.47;;;3.33;;
20065;SDS011;10193;48.884;9.182;2022-10-28T02:01:57;3.20;;;2.90;;
20065;SDS011;10193;48.884;9.182;2022-10-28T02:04:24;3.65;;;3.00;;
20065;SDS011;10193;48.884;9.182;2022-10-28T02:06:52;5.72;;;3.05;;
20065;SDS011;10193;48.884;9.182;2022-10-28T02:09:24;5.22;;;3.45;;
20065;SDS011;10193;48.884;9.182;2022-10-28T02:12:11;5.63;;;3.05;;
20065;SDS011;10193;48.884;9.182;2022-10-28T02:14:52;6.55;;;2.90;;
20065;SDS011;10193;48.884;9.182;2022-10-28T02:17:41;3.55;;;2.80;;
20065;SDS011;10193;48.884;9.182;2022-10-28T02:20:17;3.40;;;3.08;;
20065;SDS011;10193;48.884;9.182;2022-10-28T02:22:53;3.75;;;2.92;;
20065;SDS011;10193;48.884;9.182;2022-10-28T02:25:27;3.67;;;2.97;;
20065;SDS011;10193;48.884;9.182;2022-10-28T02:28:00;5.30;;;2.95;;
20065;SDS011;10193;48.884;9.182;2022-10-28T02:30:33;5.22;;;3.20;;
20065;SDS011;10193;48.884;9.182;2022-10-28T02:33:09;4.47;;;3.20;;
20065;SDS011;10193;48.884;9.182;2022-10-28T02:35:40;4.05;;;3.15;;
20065;SDS011;10193;48.884;9.182;2022-10-28T02:38:11;4.40;;;3.38;;
20065;SDS011;10193;48.884;9.182;2022-10-28T02:40:43;5.10;;;2.88;;
20065;SDS011;10193;48.884;9.182;2022-10-28T02:43:16;4.85;;;3.22;;
20065;SDS011;10193;48.884;9.182;2022-10-28T02:45:45;4.10;;;2.97;;
20065;SDS011;10193;48.884;9.182;2022-10-28T02:48:17;6.43;;;3.28;;
20065;SDS011;10193;48.884;9.182;2022-10-28T02:50:47;4.90;;;3.05;;
20065;SDS011;10193;48.884;9.182;2022-10-28T02:53:19;3.90;;;3.00;;
20065;SDS011;10193;48.884;9.182;2022-10-28T02:55:50;5.80;;;3.60;;
20065;SDS011;10193;48.884;9.182;2022-10-28T02:58:19;3.85;;;3.20;;
20065;SDS011;10193;48.884;9.182;2022-10-28T03:00:46;3.95;;;3.13;;
20065;SDS011;10193;48.884;9.182;2022-10-28T03:03:13;4.25;;;3.10;;
20065;SDS011;10193;48.884;9.182;2022-10-28T03:05:42;3.58;;;2.67;;
20065;SDS011;10193;48.884;9.182;2022-10-28T03:08:09;4.57;;;2.85;;
20065;SDS011;10193;48.884;9.182;2022-10-28T03:10:35;4.00;;;2.80;;
20065;SDS011;10193;48.884;9.182;2022-10-28T03:13:02;6.38;;;3.13;;
20065;SDS011;10193;48.884;9.182;2022-10-28T03:15:29;5.53;;;2.90;;
20065;SDS011;10193;48.884;9.182;2022-10-28T03:17:55;5.63;;;3.10;;
20065;SDS011;10193;48.884;9.182;2022-10-28T03:20:22;7.72;;;3.22;;
20065;SDS011;10193;48.884;9.182;2022-10-28T03:22:50;5.50;;;3.30;;
20065;SDS011;10193;48.884;9.182;2022-10-28T03:25:16;3.22;;;2.90;;
20065;SDS011;10193;48.884;9.182;2022-10-28T03:27:43;4.45;;;2.88;;
20065;SDS011;10193;48.884;9.182;2022-10-28T03:30:10;3.50;;;2.92;;
20065;SDS011;10193;48.884;9.182;2022-10-28T03:32:39;4.15;;;2.90;;
20065;SDS011;10193;48.884;9.182;2022-10-28T03:35:06;3.58;;;2.97;;
20065;SDS011;10193;48.884;9.182;2022-10-28T03:37:33;5.15;;;3.10;;
20065;SDS011;10193;48.884;9.182;2022-10-28T03:40:02;3.78;;;3.20;;
20065;SDS011;10193;48.884;9.182;2022-10-28T03:42:31;3.45;;;3.15;;
20065;SDS011;10193;48.884;9.182;2022-10-28T03:44:59;3.47;;;3.03;;
20065;SDS011;10193;48.884;9.182;2022-10-28T03:47:25;5.82;;;3.40;;
20065;SDS011;10193;48.884;9.182;2022-10-28T03:49:52;4.47;;;3.40;;
20065;SDS011;10193;48.884;9.182;2022-10-28T03:52:18;5.07;;;3.20;;
20065;SDS011;10193;48.884;9.182;2022-10-28T03:54:45;4.75;;;3.13;;
20065;SDS011;10193;48.884;9.182;2022-10-28T03:57:13;6.82;;;3.40;;
20065;SDS011;10193;48.884;9.182;2022-10-28T03:59:40;4.45;;;3.28;;
20065;SDS011;10193;48.884;9.182;2022-10-28T04:02:06;3.58;;;3.03;;
20065;SDS011;10193;48.884;9.182;2022-10-28T04:04:33;3.38;;;3.00;;
20065;SDS011;10193;48.884;9.182;2022-10-28T04:06:59;5.03;;;3.13;;
20065;SDS011;10193;48.884;9.182;2022-10-28T04:09:26;3.75;;;2.85;;
20065;SDS011;10193;48.884;9.182;2022-10-28T04:11:53;3.50;;;3.00;;
20065;SDS011;10193;48.884;9.182;2022-10-28T04:14:21;3.72;;;2.97;;
20065;SDS011;10193;48.884;9.182;2022-10-28T04:16:47;3.85;;;2.95;;
20065;SDS011;10193;48.884;9.182;2022-10-28T04:19:14;3.22;;;2.92;;
20065;SDS011;10193;48.884;9.182;2022-10-28T04:21:41;4.05;;;2.83;;
20065;SDS011;10193;48.884;9.182;2022-10-28T04:24:07;4.65;;;2.85;;
20065;SDS011;10193;48.884;9.182;2022-10-28T04:26:34;3.97;;;2.80;;
20065;SDS011;10193;48.884;9.182;2022-10-28T04:29:01;4.93;;;2.70;;
20065;SDS011;10193;48.884;9.182;2022-10-28T04:31:29;5.55;;;2.97;;
20065;SDS011;10193;48.884;9.182;2022-10-28T04:33:55;3.58;;;2.50;;
20065;SDS011;10193;48.884;9.182;2022-10-28T04:36:22;3.58;;;2.75;;
20065;SDS011;10193;48.884;9.182;2022-10-28T04:38:49;3.65;;;2.60;;
20065;SDS011;10193;48.884;9.182;2022-10-28T04:41:16;3.80;;;2.65;;
20065;SDS011;10193;48.884;9.182;2022-10-28T04:43:43;4.18;;;2.70;;
20065;SDS011;10193;48.884;9.182;2022-10-28T04:46:09;5.38;;;3.13;;
20065;SDS011;10193;48.884;9.182;2022-10-28T04:48:37;3.13;;;2.67;;
20065;SDS011;10193;48.884;9.182;2022-10-28T04:51:04;4.85;;;2.80;;
20065;SDS011;10193;48.884;9.182;2022-10-28T04:53:31;3.55;;;2.97;;
20065;SDS011;10193;48.884;9.182;2022-10-28T04:55:58;3.97;;;2.92;;
20065;SDS011;10193;48.884;9.182;2022-10-28T04:58:25;3.53;;;2.72;;
20065;SDS011;10193;48.884;9.182;2022-10-28T05:00:52;4.88;;;2.70;;
20065;SDS011;10193;48.884;9.182;2022-10-28T05:03:18;3.60;;;2.92;;
20065;SDS011;10193;48.884;9.182;2022-10-28T05:05:47;3.10;;;2.80;;
20065;SDS011;10193;48.884;9.182;2022-10-28T05:08:13;3.28;;;2.83;;
20065;SDS011;10193;48.884;9.182;2022-10-28T05:10:40;4.03;;;3.10;;
20065;SDS011;10193;48.884;9.182;2022-10-28T05:13:07;5.70;;;3.13;;
20065;SDS011;10193;48.884;9.182;2022-10-28T05:15:33;3.38;;;3.08;;
20065;SDS011;10193;48.884;9.182;2022-10-28T05:18:00;4.18;;;3.47;;
20065;SDS011;10193;48.884;9.182;2022-10-28T05:20:26;4.28;;;3.53;;
20065;SDS011;10193;48.884;9.182;2022-10-28T05:22:54;4.30;;;3.30;;
20065;SDS011;10193;48.884;9.182;2022-10-28T05:25:21;5.25;;;3.15;;
20065;SDS011;10193;48.884;9.182;2022-10-28T05:27:49;5.47;;;3.00;;
20065;SDS011;10193;48.884;9.182;2022-10-28T05:30:16;3.42;;;2.67;;
20065;SDS011;10193;48.884;9.182;2022-10-28T05:32:43;5.70;;;3.40;;
20065;SDS011;10193;48.884;9.182;2022-10-28T05:35:10;6.03;;;3.40;;
20065;SDS011;10193;48.884;9.182;2022-10-28T05:37:37;4.38;;;3.25;;
20065;SDS011;10193;48.884;9.182;2022-10-28T05:40:06;4.32;;;3.30;;
20065;SDS011;10193;48.884;9.182;2022-10-28T05:42:38;5.22;;;3.33;;
20065;SDS011;10193;48.884;9.182;2022-10-28T05:45:06;5.07;;;3.58;;
20065;SDS011;10193;48.884;9.182;2022-10-28T05:47:33;3.83;;;3.17;;
20065;SDS011;10193;48.884;9.182;2022-10-28T05:49:59;4.20;;;2.92;;
20065;SDS011;10193;48.884;9.182;2022-10-28T05:52:26;5.72;;;3.05;;
20065;SDS011;10193;48.884;9.182;2022-10-28T05:54:52;4.53;;;3.30;;
20065;SDS011;10193;48.884;9.182;2022-10-28T05:57:20;4.25;;;3.00;;
20065;SDS011;10193;48.884;9.182;2022-10-28T05:59:47;4.70;;;3.13;;
20065;SDS011;10193;48.884;9.182;2022-10-28T06:02:14;5.97;;;2.90;;
20065;SDS011;10193;48.884;9.182;2022-10-28T06:04:40;4.35;;;2.78;;
20065;SDS011;10193;48.884;9.182;2022-10-28T06:07:07;4.78;;;3.35;;
20065;SDS011;10193;48.884;9.182;2022-10-28T06:09:34;6.63;;;3.20;;
20065;SDS011;10193;48.884;9.182;2022-10-28T06:12:01;9.20;;;3.00;;
20065;SDS011;10193;48.884;9.182;2022-10-28T06:14:30;4.60;;;3.22;;
20065;SDS011;10193;48.884;9.182;2022-10-28T06:16:56;4.00;;;3.05;;
20065;SDS011;10193;48.884;9.182;2022-10-28T06:19:23;3.92;;;2.97;;
20065;SDS011;10193;48.884;9.182;2022-10-28T06:21:50;5.60;;;3.15;;
20065;SDS011;10193;48.884;9.182;2022-10-28T06:24:16;6.00;;;2.83;;
20065;SDS011;10193;48.884;9.182;2022-10-28T06:26:43;3.45;;;3.00;;
20065;SDS011;10193;48.884;9.182;2022-10-28T06:29:10;4.15;;;3.17;;
20065;SDS011;10193;48.884;9.182;2022-10-28T06:31:39;7.50;;;3.30;;
20065;SDS011;10193;48.884;9.182;2022-10-28T06:34:05;4.40;;;2.80;;
20065;SDS011;10193;48.884;9.182;2022-10-28T06:36:33;3.88;;;2.90;;
20065;SDS011;10193;48.884;9.182;2022-10-28T06:39:00;5.35;;;3.03;;
20065;SDS011;10193;48.884;9.182;2022-10-28T06:41:26;9.73;;;3.55;;
20065;SDS011;10193;48.884;9.182;2022-10-28T06:43:53;5.05;;;3.15;;
20065;SDS011;10193;48.884;9.182;2022-10-28T06:46:20;4.28;;;2.78;;
20065;SDS011;10193;48.884;9.182;2022-10-28T06:48:48;6.47;;;3.60;;
20065;SDS011;10193;48.884;9.182;2022-10-28T06:51:15;7.45;;;2.88;;
20065;SDS011;10193;48.884;9.182;2022-10-28T06:53:41;4.95;;;3.10;;
20065;SDS011;10193;48.884;9.182;2022-10-28T06:56:08;3.38;;;2.80;;
20065;SDS011;10193;48.884;9.182;2022-10-28T06:58:35;4.35;;;2.95;;
20065;SDS011;10193;48.884;9.182;2022-10-28T07:01:02;3.03;;;2.65;;
20065;SDS011;10193;48.884;9.182;2022-10-28T07:03:29;4.70;;;2.90;;
20065;SDS011;10193;48.884;9.182;2022-10-28T07:05:58;5.28;;;3.28;;
20065;SDS011;10193;48.884;9.182;2022-10-28T07:08:25;4.40;;;3.10;;
20065;SDS011;10193;48.884;9.182;2022-10-28T07:10:52;6.85;;;3.03;;
20065;SDS011;10193;48.884;9.182;2022-10-28T07:13:20;3.15;;;2.63;;
20065;SDS011;10193;48.884;9.182;2022-10-28T07:15:49;6.05;;;2.80;;
20065;SDS011;10193;48.884;9.182;2022-10-28T07:18:17;5.85;;;2.75;;
20065;SDS011;10193;48.884;9.182;2022-10-28T07:20:44;5.78;;;3.22;;
20065;SDS011;10193;48.884;9.182;2022-10-28T07:23:12;3.33;;;2.67;;
20065;SDS011;10193;48.884;9.182;2022-10-28T07:25:39;5.82;;;3.13;;
20065;SDS011;10193;48.884;9.182;2022-10-28T07:28:06;4.50;;;3.17;;
20065;SDS011;10193;48.884;9.182;2022-10-28T07:30:33;3.75;;;3.08;;
20065;SDS011;10193;48.884;9.182;2022-10-28T07:33:00;7.18;;;3.10;;
20065;SDS011;10193;48.884;9.182;2022-10-28T07:35:28;4.00;;;3.03;;
20065;SDS011;10193;48.884;9.182;2022-10-28T07:37:55;5.43;;;3.00;;
20065;SDS011;10193;48.884;9.182;2022-10-28T07:40:24;5.05;;;2.90;;
20065;SDS011;10193;48.884;9.182;2022-10-28T07:42:51;4.65;;;3.03;;
20065;SDS011;10193;48.884;9.182;2022-10-28T07:45:17;3.50;;;3.03;;
20065;SDS011;10193;48.884;9.182;2022-10-28T07:47:44;5.70;;;3.00;;
20065;SDS011;10193;48.884;9.182;2022-10-28T07:50:11;4.20;;;3.00;;
20065;SDS011;10193;48.884;9.182;2022-10-28T07:52:38;5.70;;;3.35;;
20065;SDS011;10193;48.884;9.182;2022-10-28T07:55:05;6.05;;;3.17;;
20065;SDS011;10193;48.884;9.182;2022-10-28T07:57:34;4.00;;;2.97;;
20065;SDS011;10193;48.884;9.182;2022-10-28T08:00:01;5.13;;;3.05;;
20065;SDS011;10193;48.884;9.182;2022-10-28T08:02:28;5.32;;;2.90;;
20065;SDS011;10193;48.884;9.182;2022-10-28T08:04:55;5.53;;;3.15;;
20065;SDS011;10193;48.884;9.182;2022-10-28T08:07:24;4.35;;;3.10;;
20065;SDS011;10193;48.884;9.182;2022-10-28T08:09:50;4.55;;;2.75;;
20065;SDS011;10193;48.884;9.182;2022-10-28T08:12:17;4.97;;;3.00;;
20065;SDS011;10193;48.884;9.182;2022-10-28T08:14:45;4.45;;;2.80;;
20065;SDS011;10193;48.884;9.182;2022-10-28T08:17:12;4.28;;;3.10;;
20065;SDS011;10193;48.884;9.182;2022-10-28T08:19:39;4.22;;;2.92;;
20065;SDS011;10193;48.884;9.182;2022-10-28T08:22:06;3.75;;;3.10;;
20065;SDS011;10193;48.884;9.182;2022-10-28T08:24:33;4.00;;;2.95;;
20065;SDS011;10193;48.884;9.182;2022-10-28T08:27:00;4.07;;;3.03;;
20065;SDS011;10193;48.884;9.182;2022-10-28T08:29:27;3.97;;;2.90;;
20065;SDS011;10193;48.884;9.182;2022-10-28T08:31:55;5.25;;;3.20;;
20065;SDS011;10193;48.884;9.182;2022-10-28T08:34:22;3.42;;;2.75;;
20065;SDS011;10193;48.884;9.182;2022-10-28T08:36:53;4.97;;;3.17;;
20065;SDS011;10193;48.884;9.182;2022-10-28T08:39:20;4.22;;;3.13;;
20065;SDS011;10193;48.884;9.182;2022-10-28T08:41:48;3.88;;;2.90;;
20065;SDS011;10193;48.884;9.182;2022-10-28T08:47:34;4.35;;;3.00;;
20065;SDS011;10193;48.884;9.182;2022-10-28T08:50:10;5.55;;;2.75;;
20065;SDS011;10193;48.884;9.182;2022-10-28T08:52:40;3.90;;;3.05;;
20065;SDS011;10193;48.884;9.182;2022-10-28T08:55:13;3.40;;;2.63;;
20065;SDS011;10193;48.884;9.182;2022-10-28T08:57:42;4.13;;;2.80;;
20065;SDS011;10193;48.884;9.182;2022-10-28T09:00:17;2.90;;;2.38;;
20065;SDS011;10193;48.884;9.182;2022-10-28T09:02:51;5.72;;;2.85;;
20065;SDS011;10193;48.884;9.182;2022-10-28T09:05:23;4.30;;;2.63;;
20065;SDS011;10193;48.884;9.182;2022-10-28T09:07:51;2.60;;;2.40;;
20065;SDS011;10193;48.884;9.182;2022-10-28T09:10:22;4.43;;;2.70;;
20065;SDS011;10193;48.884;9.182;2022-10-28T09:13:02;3.90;;;2.58;;
20065;SDS011;10193;48.884;9.182;2022-10-28T09:15:36;3.78;;;2.30;;
20065;SDS011;10193;48.884;9.182;2022-10-28T09:18:12;3.03;;;2.58;;
20065;SDS011;10193;48.884;9.182;2022-10-28T09:20:46;3.80;;;2.47;;
20065;SDS011;10193;48.884;9.182;2022-10-28T09:23:20;5.30;;;2.65;;
20065;SDS011;10193;48.884;9.182;2022-10-28T09:25:52;3.72;;;2.45;;
20065;SDS011;10193;48.884;9.182;2022-10-28T09:28:29;3.10;;;2.58;;
20065;SDS011;10193;48.884;9.182;2022-10-28T09:31:09;5.07;;;2.60;;
20065;SDS011;10193;48.884;9.182;2022-10-28T09:33:44;5.47;;;2.75;;
20065;SDS011;10193;48.884;9.182;2022-10-28T09:36:20;2.55;;;2.00;;
20065;SDS011;10193;48.884;9.182;2022-10-28T09:38:50;3.67;;;2.40;;
20065;SDS011;10193;48.884;9.182;2022-10-28T09:41:21;4.68;;;2.55;;
20065;SDS011;10193;48.884;9.182;2022-10-28T09:43:50;2.92;;;2.20;;
20065;SDS011;10193;48.884;9.182;2022-10-28T09:46:19;3.03;;;2.20;;
20065;SDS011;10193;48.884;9.182;2022-10-28T09:48:50;3.90;;;2.78;;
20065;SDS011;10193;48.884;9.182;2022-10-28T09:51:23;4.72;;;2.70;;
20065;SDS011;10193;48.884;9.182;2022-10-28T09:53:56;5.13;;;2.58;;
20065;SDS011;10193;48.884;9.182;2022-10-28T09:56:24;4.95;;;2.50;;
20065;SDS011;10193;48.884;9.182;2022-10-28T09:58:52;4.03;;;2.50;;
20065;SDS011;10193;48.884;9.182;2022-10-28T10:01:20;3.13;;;2.33;;
20065;SDS011;10193;48.884;9.182;2022-10-28T10:03:47;6.03;;;2.40;;
20065;SDS011;10193;48.884;9.182;2022-10-28T10:06:17;3.83;;;2.25;;
20065;SDS011;10193;48.884;9.182;2022-10-28T10:08:47;3.78;;;2.47;;
20065;SDS011;10193;48.884;9.182;2022-10-28T10:11:15;6.45;;;2.25;;
20065;SDS011;10193;48.884;9.182;2022-10-28T10:13:49;4.45;;;2.60;;
20065;SDS011;10193;48.884;9.182;2022-10-28T10:16:20;4.28;;;2.10;;
20065;SDS011;10193;48.884;9.182;2022-10-28T10:18:53;3.72;;;2.60;;
20065;SDS011;10193;48.884;9.182;2022-10-28T10:21:38;5.15;;;2.60;;
20065;SDS011;10193;48.884;9.182;2022-10-28T10:24:22;3.90;;;2.42;;
20065;SDS011;10193;48.884;9.182;2022-10-28T10:26:51;3.92;;;2.60;;
20065;SDS011;10193;48.884;9.182;2022-10-28T10:29:18;4.72;;;2.58;;
20065;SDS011;10193;48.884;9.182;2022-10-28T10:31:45;3.15;;;2.72;;
20065;SDS011;10193;48.884;9.182;2022-10-28T10:34:19;5.78;;;2.97;;
20065;SDS011;10193;48.884;9.182;2022-10-28T10:36:48;7.00;;;3.00;;
20065;SDS011;10193;48.884;9.182;2022-10-28T10:39:19;4.10;;;3.03;;
20065;SDS011;10193;48.884;9.182;2022-10-28T10:41:50;4.72;;;2.75;;
20065;SDS011;10193;48.884;9.182;2022-10-28T10:44:29;2.67;;;2.38;;
20065;SDS011;10193;48.884;9.182;2022-10-28T10:47:15;5.18;;;2.50;;
20065;SDS011;10193;48.884;9.182;2022-10-28T10:49:45;4.78;;;2.75;;
20065;SDS011;10193;48.884;9.182;2022-10-28T10:52:17;5.28;;;2.92;;
20065;SDS011;10193;48.884;9.182;2022-10-28T10:54:56;5.57;;;3.17;;
20065;SDS011;10193;48.884;9.182;2022-10-28T10:57:26;3.88;;;2.97;;
20065;SDS011;10193;48.884;9.182;2022-10-28T10:59:53;4.57;;;2.65;;
20065;SDS011;10193;48.884;9.182;2022-10-28T11:02:22;3.35;;;2.55;;
20065;SDS011;10193;48.884;9.182;2022-10-28T11:04:53;3.92;;;2.85;;
20065;SDS011;10193;48.884;9.182;2022-10-28T11:07:22;5.30;;;2.75;;
20065;SDS011;10193;48.884;9.182;2022-10-28T11:09:49;3.83;;;2.80;;
20065;SDS011;10193;48.884;9.182;2022-10-28T11:12:23;4.78;;;3.08;;
20065;SDS011;10193;48.884;9.182;2022-10-28T11:14:53;6.07;;;3.10;;
20065;SDS011;10193;48.884;9.182;2022-10-28T11:17:25;3.15;;;2.78;;
20065;SDS011;10193;48.884;9.182;2022-10-28T11:19:56;3.33;;;3.00;;
20065;SDS011;10193;48.884;9.182;2022-10-28T11:22:33;4.95;;;2.63;;
20065;SDS011;10193;48.884;9.182;2022-10-28T11:28:00;8.05;;;4.32;;
20065;SDS011;10193;48.884;9.182;2022-10-28T11:30:41;5.75;;;4.53;;
20065;SDS011;10193;48.884;9.182;2022-10-28T11:33:18;7.78;;;5.38;;
20065;SDS011;10193;48.884;9.182;2022-10-28T11:35:51;5.72;;;4.38;;
20065;SDS011;10193;48.884;9.182;2022-10-28T11:38:31;6.75;;;4.10;;
20065;SDS011;10193;48.884;9.182;2022-10-28T11:41:17;8.88;;;5.10;;
20065;SDS011;10193;48.884;9.182;2022-10-28T11:43:52;6.43;;;4.47;;
20065;SDS011;10193;48.884;9.182;2022-10-28T11:46:24;7.03;;;3.67;;
20065;SDS011;10193;48.884;9.182;2022-10-28T11:49:15;5.40;;;3.30;;
20065;SDS011;10193;48.884;9.182;2022-10-28T11:52:13;4.47;;;3.08;;
20065;SDS011;10193;48.884;9.182;2022-10-28T11:54:54;3.92;;;3.03;;
20065;SDS011;10193;48.884;9.182;2022-10-28T11:57:32;4.18;;;2.60;;
20065;SDS011;10193;48.884;9.182;2022-10-28T12:00:13;4.60;;;2.58;;
20065;SDS011;10193;48.884;9.182;2022-10-28T12:03:06;3.80;;;2.20;;
20065;SDS011;10193;48.884;9.182;2022-10-28T12:05:42;4.10;;;2.33;;
20065;SDS011;10193;48.884;9.182;2022-10-28T12:08:21;10.57;;;2.95;;
20065;SDS011;10193;48.884;9.182;2022-10-28T12:11:01;32.17;;;5.78;;
20065;SDS011;10193;48.884;9.182;2022-10-28T12:13:35;9.82;;;3.70;;
20065;SDS011;10193;48.884;9.182;2022-10-28T12:16:05;11.95;;;3.92;;
20065;SDS011;10193;48.884;9.182;2022-10-28T12:18:40;5.47;;;3.00;;
20065;SDS011;10193;48.884;9.182;2022-10-28T12:21:15;17.92;;;4.15;;
20065;SDS011;10193;48.884;9.182;2022-10-28T12:23:50;10.45;;;3.40;;
20065;SDS011;10193;48.884;9.182;2022-10-28T12:26:19;17.92;;;3.95;;
20065;SDS011;10193;48.884;9.182;2022-10-28T12:28:50;5.07;;;2.80;;
20065;SDS011;10193;48.884;9.182;2022-10-28T12:31:21;4.28;;;2.33;;
20065;SDS011;10193;48.884;9.182;2022-10-28T12:33:52;3.13;;;2.22;;
20065;SDS011;10193;48.884;9.182;2022-10-28T12:36:27;4.63;;;2.40;;
20065;SDS011;10193;48.884;9.182;2022-10-28T12:39:00;4.18;;;1.98;;
20065;SDS011;10193;48.884;9.182;2022-10-28T12:41:41;2.35;;;2.15;;
20065;SDS011;10193;48.884;9.182;2022-10-28T12:44:18;2.83;;;2.08;;
20065;SDS011;10193;48.884;9.182;2022-10-28T12:46:49;4.43;;;2.33;;
20065;SDS011;10193;48.884;9.182;2022-10-28T12:49:24;3.20;;;2.10;;
20065;SDS011;10193;48.884;9.182;2022-10-28T12:52:03;5.40;;;2.38;;
20065;SDS011;10193;48.884;9.182;2022-10-28T12:54:39;4.13;;;2.10;;
20065;SDS011;10193;48.884;9.182;2022-10-28T12:57:13;2.72;;;1.83;;
20065;SDS011;10193;48.884;9.182;2022-10-28T12:59:44;3.92;;;1.85;;
20065;SDS011;10193;48.884;9.182;2022-10-28T13:02:16;3.08;;;1.90;;
20065;SDS011;10193;48.884;9.182;2022-10-28T13:04:49;3.28;;;1.88;;
20065;SDS011;10193;48.884;9.182;2022-10-28T13:07:26;2.53;;;2.03;;
20065;SDS011;10193;48.884;9.182;2022-10-28T13:10:20;3.92;;;1.85;;
20065;SDS011;10193;48.884;9.182;2022-10-28T13:13:00;2.75;;;1.95;;
20065;SDS011;10193;48.884;9.182;2022-10-28T13:15:42;4.35;;;2.38;;
20065;SDS011;10193;48.884;9.182;2022-10-28T13:21:21;2.95;;;1.98;;
20065;SDS011;10193;48.884;9.182;2022-10-28T13:23:56;5.35;;;2.15;;
20065;SDS011;10193;48.884;9.182;2022-10-28T13:26:31;4.13;;;2.03;;
20065;SDS011;10193;48.884;9.182;2022-10-28T13:29:01;4.85;;;2.30;;
20065;SDS011;10193;48.884;9.182;2022-10-28T13:31:35;2.60;;;2.00;;
20065;SDS011;10193;48.884;9.182;2022-10-28T13:34:03;3.05;;;2.00;;
20065;SDS011;10193;48.884;9.182;2022-10-28T13:36:31;4.30;;;2.00;;
20065;SDS011;10193;48.884;9.182;2022-10-28T13:39:01;5.43;;;2.40;;
20065;SDS011;10193;48.884;9.182;2022-10-28T13:41:32;3.80;;;2.42;;
20065;SDS011;10193;48.884;9.182;2022-10-28T13:52:38;4.50;;;2.20;;
20065;SDS011;10193;48.884;9.182;2022-10-28T13:55:19;3.88;;;2.08;;
20065;SDS011;10193;48.884;9.182;2022-10-28T13:57:49;5.47;;;2.28;;
20065;SDS011;10193;48.884;9.182;2022-10-28T14:00:32;4.63;;;2.40;;
20065;SDS011;10193;48.884;9.182;2022-10-28T14:03:01;3.42;;;2.30;;
20065;SDS011;10193;48.884;9.182;2022-10-28T14:08:17;2.80;;;2.10;;
20065;SDS011;10193;48.884;9.182;2022-10-28T14:10:55;2.45;;;2.10;;
20065;SDS011;10193;48.884;9.182;2022-10-28T14:13:29;3.13;;;2.30;;
20065;SDS011;10193;48.884;9.182;2022-10-28T14:18:56;2.85;;;2.13;;
20065;SDS011;10193;48.884;9.182;2022-10-28T14:21:39;2.90;;;2.38;;
20065;SDS011;10193;48.884;9.182;2022-10-28T14:24:10;5.40;;;2.63;;
20065;SDS011;10193;48.884;9.182;2022-10-28T14:30:03;3.58;;;2.40;;
20065;SDS011;10193;48.884;9.182;2022-10-28T14:32:54;2.63;;;2.13;;
20065;SDS011;10193;48.884;9.182;2022-10-28T14:35:22;7.47;;;2.40;;
20065;SDS011;10193;48.884;9.182;2022-10-28T14:38:09;5.55;;;2.53;;
20065;SDS011;10193;48.884;9.182;2022-10-28T14:41:04;4.07;;;2.13;;
20065;SDS011;10193;48.884;9.182;2022-10-28T14:43:42;2.75;;;2.20;;
20065;SDS011;10193;48.884;9.182;2022-10-28T14:46:23;3.80;;;2.20;;
20065;SDS011;10193;48.884;9.182;2022-10-28T14:48:58;5.35;;;3.78;;
20065;SDS011;10193;48.884;9.182;2022-10-28T14:51:28;4.75;;;2.95;;
20065;SDS011;10193;48.884;9.182;2022-10-28T14:54:05;4.47;;;2.53;;
20065;SDS011;10193;48.884;9.182;2022-10-28T14:56:34;6.88;;;2.67;;
20065;SDS011;10193;48.884;9.182;2022-10-28T14:59:03;2.65;;;2.22;;
20065;SDS011;10193;48.884;9.182;2022-10-28T15:01:49;4.15;;;2.50;;
20065;SDS011;10193;48.884;9.182;2022-10-28T15:04:23;5.15;;;2.40;;
20065;SDS011;10193;48.884;9.182;2022-10-28T15:06:50;3.72;;;2.20;;
20065;SDS011;10193;48.884;9.182;2022-10-28T15:09:19;5.72;;;2.30;;
20065;SDS011;10193;48.884;9.182;2022-10-28T15:11:48;4.40;;;2.47;;
20065;SDS011;10193;48.884;9.182;2022-10-28T15:14:27;4.68;;;2.60;;
20065;SDS011;10193;48.884;9.182;2022-10-28T15:16:57;4.75;;;2.50;;
20065;SDS011;10193;48.884;9.182;2022-10-28T15:19:27;4.55;;;2.28;;
20065;SDS011;10193;48.884;9.182;2022-10-28T15:22:00;5.18;;;2.45;;
20065;SDS011;10193;48.884;9.182;2022-10-28T15:24:28;5.97;;;2.70;;
20065;SDS011;10193;48.884;9.182;2022-10-28T15:26:55;8.35;;;3.10;;
20065;SDS011;10193;48.884;9.182;2022-10-28T15:29:22;4.50;;;2.50;;
20065;SDS011;10193;48.884;9.182;2022-10-28T15:32:04;2.63;;;2.25;;
20065;SDS011;10193;48.884;9.182;2022-10-28T15:34:32;4.85;;;2.80;;
20065;SDS011;10193;48.884;9.182;2022-10-28T15:36:58;4.30;;;2.70;;